sensor_id;sensor_type;location;lat;lon;timestamp;temperature;humidity
22950;DHT22;11641;51.018;4.474;2023-02-22T00:01:27;7.80;99.90
22950;DHT22;11641;51.018;4.474;2023-02-22T00:04:02;7.70;99.90
22950;DHT22;11641;51.018;4.474;2023-02-22T00:06:28;7.70;99.90
22950;DHT22;11641;51.018;4.474;2023-02-22T00:08:56;7.60;99.90
22950;DHT22;11641;51.018;4.474;2023-02-22T00:11:22;7.60;99.90
22950;DHT22;11641;51.018;4.474;2023-02-22T00:13:47;7.60;99.90
22950;DHT22;11641;51.018;4.474;2023-02-22T00:16:20;7.60;99.90
22950;DHT22;11641;51.018;4.474;2023-02-22T00:18:47;7.60;99.90
22950;DHT22;11641;51.018;4.474;2023-02-22T00:21:14;7.60;99.90
22950;DHT22;11641;51.018;4.474;2023-02-22T00:23:47;7.60;99.90
22950;DHT22;11641;51.018;4.474;2023-02-22T00:26:16;7.70;99.90
22950;DHT22;11641;51.018;4.474;2023-02-22T00:28:46;7.70;99.90
22950;DHT22;11641;51.018;4.474;2023-02-22T00:31:13;7.60;99.90
22950;DHT22;11641;51.018;4.474;2023-02-22T00:33:40;7.50;99.90
22950;DHT22;11641;51.018;4.474;2023-02-22T00:36:08;7.60;99.90
22950;DHT22;11641;51.018;4.474;2023-02-22T00:38:35;7.60;99.90
22950;DHT22;11641;51.018;4.474;2023-02-22T00:41:00;7.80;99.90
22950;DHT22;11641;51.018;4.474;2023-02-22T00:43:26;7.70;99.90
22950;DHT22;11641;51.018;4.474;2023-02-22T00:45:52;7.80;99.90
22950;DHT22;11641;51.018;4.474;2023-02-22T00:48:21;7.70;99.90
22950;DHT22;11641;51.018;4.474;2023-02-22T00:50:46;7.60;99.90
22950;DHT22;11641;51.018;4.474;2023-02-22T00:53:14;7.50;99.90
22950;DHT22;11641;51.018;4.474;2023-02-22T00:55:40;7.50;99.90
22950;DHT22;11641;51.018;4.474;2023-02-22T00:58:06;7.60;99.90
22950;DHT22;11641;51.018;4.474;2023-02-22T01:02:58;7.60;99.90
22950;DHT22;11641;51.018;4.474;2023-02-22T01:05:26;7.50;99.90
22950;DHT22;11641;51.018;4.474;2023-02-22T01:07:53;7.60;99.90
22950;DHT22;11641;51.018;4.474;2023-02-22T01:10:21;7.60;99.90
22950;DHT22;11641;51.018;4.474;2023-02-22T01:12:47;7.60;99.90
22950;DHT22;11641;51.018;4.474;2023-02-22T01:15:15;7.60;99.90
22950;DHT22;11641;51.018;4.474;2023-02-22T01:17:41;7.60;99.90
22950;DHT22;11641;51.018;4.474;2023-02-22T01:20:09;7.80;99.90
22950;DHT22;11641;51.018;4.474;2023-02-22T01:22:39;7.70;99.90
22950;DHT22;11641;51.018;4.474;2023-02-22T01:25:07;7.60;99.90
22950;DHT22;11641;51.018;4.474;2023-02-22T01:27:34;7.60;99.90
22950;DHT22;11641;51.018;4.474;2023-02-22T01:30:00;7.50;99.90
22950;DHT22;11641;51.018;4.474;2023-02-22T01:32:26;7.50;99.90
22950;DHT22;11641;51.018;4.474;2023-02-22T01:34:52;7.50;99.90
22950;DHT22;11641;51.018;4.474;2023-02-22T01:37:19;7.40;99.90
22950;DHT22;11641;51.018;4.474;2023-02-22T01:39:45;7.40;99.90
22950;DHT22;11641;51.018;4.474;2023-02-22T01:42:11;7.40;99.90
22950;DHT22;11641;51.018;4.474;2023-02-22T01:44:38;7.40;99.90
22950;DHT22;11641;51.018;4.474;2023-02-22T01:47:06;7.40;99.90
22950;DHT22;11641;51.018;4.474;2023-02-22T01:49:45;7.60;99.90
22950;DHT22;11641;51.018;4.474;2023-02-22T01:52:15;7.60;99.90
22950;DHT22;11641;51.018;4.474;2023-02-22T01:54:54;7.60;99.90
22950;DHT22;11641;51.018;4.474;2023-02-22T01:57:24;7.50;99.90
22950;DHT22;11641;51.018;4.474;2023-02-22T01:59:54;7.50;99.90
22950;DHT22;11641;51.018;4.474;2023-02-22T02:02:21;7.40;99.90
22950;DHT22;11641;51.018;4.474;2023-02-22T02:04:51;7.40;99.90
22950;DHT22;11641;51.018;4.474;2023-02-22T02:07:21;7.40;99.90
22950;DHT22;11641;51.018;4.474;2023-02-22T02:09:59;7.40;99.90
22950;DHT22;11641;51.018;4.474;2023-02-22T02:12:28;7.30;99.90
22950;DHT22;11641;51.018;4.474;2023-02-22T02:15:19;7.30;99.90
22950;DHT22;11641;51.018;4.474;2023-02-22T02:17:46;7.20;99.90
22950;DHT22;11641;51.018;4.474;2023-02-22T02:20:26;7.10;99.90
22950;DHT22;11641;51.018;4.474;2023-02-22T02:34:30;7.20;99.90
22950;DHT22;11641;51.018;4.474;2023-02-22T02:37:18;7.10;99.90
22950;DHT22;11641;51.018;4.474;2023-02-22T02:40:22;7.10;99.90
22950;DHT22;11641;51.018;4.474;2023-02-22T02:45:50;7.00;99.90
22950;DHT22;11641;51.018;4.474;2023-02-22T02:48:23;7.10;99.90
22950;DHT22;11641;51.018;4.474;2023-02-22T02:50:50;7.10;99.90
22950;DHT22;11641;51.018;4.474;2023-02-22T02:53:21;7.00;99.90
22950;DHT22;11641;51.018;4.474;2023-02-22T02:55:47;7.30;99.90
22950;DHT22;11641;51.018;4.474;2023-02-22T02:58:21;7.10;99.90
22950;DHT22;11641;51.018;4.474;2023-02-22T03:00:51;7.10;99.90
22950;DHT22;11641;51.018;4.474;2023-02-22T03:09:11;7.10;99.90
22950;DHT22;11641;51.018;4.474;2023-02-22T03:11:53;7.20;99.90
22950;DHT22;11641;51.018;4.474;2023-02-22T03:14:41;7.30;99.90
22950;DHT22;11641;51.018;4.474;2023-02-22T03:17:37;7.20;99.90
22950;DHT22;11641;51.018;4.474;2023-02-22T03:22:44;6.90;99.90
22950;DHT22;11641;51.018;4.474;2023-02-22T03:25:21;7.00;99.90
22950;DHT22;11641;51.018;4.474;2023-02-22T03:27:50;7.00;99.90
22950;DHT22;11641;51.018;4.474;2023-02-22T03:32:59;7.00;99.90
22950;DHT22;11641;51.018;4.474;2023-02-22T03:35:30;7.00;99.90
22950;DHT22;11641;51.018;4.474;2023-02-22T03:38:01;6.90;99.90
22950;DHT22;11641;51.018;4.474;2023-02-22T03:40:31;6.90;99.90
22950;DHT22;11641;51.018;4.474;2023-02-22T03:43:07;6.80;99.90
22950;DHT22;11641;51.018;4.474;2023-02-22T03:45:35;6.80;99.90
22950;DHT22;11641;51.018;4.474;2023-02-22T03:48:27;7.00;99.90
22950;DHT22;11641;51.018;4.474;2023-02-22T03:50:56;7.10;99.90
22950;DHT22;11641;51.018;4.474;2023-02-22T03:53:23;7.40;99.90
22950;DHT22;11641;51.018;4.474;2023-02-22T03:55:49;7.30;99.90
22950;DHT22;11641;51.018;4.474;2023-02-22T03:58:19;7.30;99.90
22950;DHT22;11641;51.018;4.474;2023-02-22T04:00:46;7.30;99.90
22950;DHT22;11641;51.018;4.474;2023-02-22T04:03:12;7.10;99.90
22950;DHT22;11641;51.018;4.474;2023-02-22T04:05:40;6.90;99.90
22950;DHT22;11641;51.018;4.474;2023-02-22T04:08:05;6.80;99.90
22950;DHT22;11641;51.018;4.474;2023-02-22T04:10:31;6.70;99.90
22950;DHT22;11641;51.018;4.474;2023-02-22T04:12:58;6.70;99.90
22950;DHT22;11641;51.018;4.474;2023-02-22T04:15:24;6.60;99.90
22950;DHT22;11641;51.018;4.474;2023-02-22T04:17:49;6.60;99.90
22950;DHT22;11641;51.018;4.474;2023-02-22T04:20:17;6.50;99.90
22950;DHT22;11641;51.018;4.474;2023-02-22T04:22:44;6.50;99.90
22950;DHT22;11641;51.018;4.474;2023-02-22T04:25:10;6.60;99.90
22950;DHT22;11641;51.018;4.474;2023-02-22T04:27:36;6.80;99.90
22950;DHT22;11641;51.018;4.474;2023-02-22T04:30:02;6.80;99.90
22950;DHT22;11641;51.018;4.474;2023-02-22T04:32:27;6.90;99.90
22950;DHT22;11641;51.018;4.474;2023-02-22T04:34:53;6.70;99.90
22950;DHT22;11641;51.018;4.474;2023-02-22T04:37:19;6.70;99.90
22950;DHT22;11641;51.018;4.474;2023-02-22T04:39:45;6.60;99.90
22950;DHT22;11641;51.018;4.474;2023-02-22T04:42:10;6.80;99.90
22950;DHT22;11641;51.018;4.474;2023-02-22T04:44:36;6.60;99.90
22950;DHT22;11641;51.018;4.474;2023-02-22T04:47:02;6.50;99.90
22950;DHT22;11641;51.018;4.474;2023-02-22T04:49:27;6.60;99.90
22950;DHT22;11641;51.018;4.474;2023-02-22T04:51:53;6.40;99.90
22950;DHT22;11641;51.018;4.474;2023-02-22T04:54:19;6.60;99.90
22950;DHT22;11641;51.018;4.474;2023-02-22T04:56:44;6.60;99.90
22950;DHT22;11641;51.018;4.474;2023-02-22T04:59:10;6.60;99.90
22950;DHT22;11641;51.018;4.474;2023-02-22T05:01:38;6.40;99.90
22950;DHT22;11641;51.018;4.474;2023-02-22T05:04:06;6.30;99.90
22950;DHT22;11641;51.018;4.474;2023-02-22T05:06:32;6.20;99.90
22950;DHT22;11641;51.018;4.474;2023-02-22T05:08:57;6.20;99.90
22950;DHT22;11641;51.018;4.474;2023-02-22T05:11:23;6.00;99.90
22950;DHT22;11641;51.018;4.474;2023-02-22T05:13:49;6.00;99.90
22950;DHT22;11641;51.018;4.474;2023-02-22T05:16:15;6.10;99.90
22950;DHT22;11641;51.018;4.474;2023-02-22T05:18:40;6.40;99.90
22950;DHT22;11641;51.018;4.474;2023-02-22T05:21:06;6.30;99.90
22950;DHT22;11641;51.018;4.474;2023-02-22T05:23:32;6.10;99.90
22950;DHT22;11641;51.018;4.474;2023-02-22T05:25:58;6.30;99.90
22950;DHT22;11641;51.018;4.474;2023-02-22T05:28:24;6.20;99.90
22950;DHT22;11641;51.018;4.474;2023-02-22T05:30:50;6.10;99.90
22950;DHT22;11641;51.018;4.474;2023-02-22T05:33:18;5.90;99.90
22950;DHT22;11641;51.018;4.474;2023-02-22T05:35:44;6.20;99.90
22950;DHT22;11641;51.018;4.474;2023-02-22T05:38:12;6.20;99.90
22950;DHT22;11641;51.018;4.474;2023-02-22T05:40:40;6.30;99.90
22950;DHT22;11641;51.018;4.474;2023-02-22T05:43:06;6.10;99.90
22950;DHT22;11641;51.018;4.474;2023-02-22T05:45:32;6.10;99.90
22950;DHT22;11641;51.018;4.474;2023-02-22T05:47:58;6.10;99.90
22950;DHT22;11641;51.018;4.474;2023-02-22T05:50:24;6.10;99.90
22950;DHT22;11641;51.018;4.474;2023-02-22T05:52:51;6.10;99.90
22950;DHT22;11641;51.018;4.474;2023-02-22T05:55:19;5.90;99.90
22950;DHT22;11641;51.018;4.474;2023-02-22T05:57:45;5.80;99.90
22950;DHT22;11641;51.018;4.474;2023-02-22T06:00:17;5.70;99.90
22950;DHT22;11641;51.018;4.474;2023-02-22T06:02:43;5.70;99.90
22950;DHT22;11641;51.018;4.474;2023-02-22T06:05:08;5.70;99.90
22950;DHT22;11641;51.018;4.474;2023-02-22T06:07:34;5.80;99.90
22950;DHT22;11641;51.018;4.474;2023-02-22T06:10:01;5.80;99.90
22950;DHT22;11641;51.018;4.474;2023-02-22T06:12:27;5.80;99.90
22950;DHT22;11641;51.018;4.474;2023-02-22T06:14:53;5.80;99.90
22950;DHT22;11641;51.018;4.474;2023-02-22T06:17:18;5.80;99.90
22950;DHT22;11641;51.018;4.474;2023-02-22T06:19:44;6.00;99.90
22950;DHT22;11641;51.018;4.474;2023-02-22T06:22:18;6.10;99.90
22950;DHT22;11641;51.018;4.474;2023-02-22T06:24:44;5.90;99.90
22950;DHT22;11641;51.018;4.474;2023-02-22T06:27:10;5.80;99.90
22950;DHT22;11641;51.018;4.474;2023-02-22T06:29:36;5.90;99.90
22950;DHT22;11641;51.018;4.474;2023-02-22T06:32:02;5.80;99.90
22950;DHT22;11641;51.018;4.474;2023-02-22T06:34:27;5.80;99.90
22950;DHT22;11641;51.018;4.474;2023-02-22T06:36:53;5.80;99.90
22950;DHT22;11641;51.018;4.474;2023-02-22T06:39:19;5.90;99.90
22950;DHT22;11641;51.018;4.474;2023-02-22T06:41:46;6.10;99.90
22950;DHT22;11641;51.018;4.474;2023-02-22T06:44:14;6.00;99.90
22950;DHT22;11641;51.018;4.474;2023-02-22T06:46:46;6.00;99.90
22950;DHT22;11641;51.018;4.474;2023-02-22T06:49:16;6.10;99.90
22950;DHT22;11641;51.018;4.474;2023-02-22T06:51:42;6.10;99.90
22950;DHT22;11641;51.018;4.474;2023-02-22T06:54:07;6.00;99.90
22950;DHT22;11641;51.018;4.474;2023-02-22T06:56:33;5.80;99.90
22950;DHT22;11641;51.018;4.474;2023-02-22T06:58:59;6.00;99.90
22950;DHT22;11641;51.018;4.474;2023-02-22T07:01:27;6.00;99.90
22950;DHT22;11641;51.018;4.474;2023-02-22T07:03:55;5.90;99.90
22950;DHT22;11641;51.018;4.474;2023-02-22T07:06:21;5.80;99.90
22950;DHT22;11641;51.018;4.474;2023-02-22T07:08:48;5.70;99.90
22950;DHT22;11641;51.018;4.474;2023-02-22T07:11:15;5.80;99.90
22950;DHT22;11641;51.018;4.474;2023-02-22T07:13:41;5.70;99.90
22950;DHT22;11641;51.018;4.474;2023-02-22T07:16:06;5.80;99.90
22950;DHT22;11641;51.018;4.474;2023-02-22T07:18:32;5.80;99.90
22950;DHT22;11641;51.018;4.474;2023-02-22T07:20:59;5.90;99.90
22950;DHT22;11641;51.018;4.474;2023-02-22T07:23:25;6.00;99.90
22950;DHT22;11641;51.018;4.474;2023-02-22T07:25:51;6.20;99.90
22950;DHT22;11641;51.018;4.474;2023-02-22T07:28:17;6.10;99.90
22950;DHT22;11641;51.018;4.474;2023-02-22T07:30:43;6.00;99.90
22950;DHT22;11641;51.018;4.474;2023-02-22T07:33:11;6.00;99.90
22950;DHT22;11641;51.018;4.474;2023-02-22T07:35:45;6.00;99.90
22950;DHT22;11641;51.018;4.474;2023-02-22T07:38:12;6.10;99.90
22950;DHT22;11641;51.018;4.474;2023-02-22T07:40:41;6.20;99.90
22950;DHT22;11641;51.018;4.474;2023-02-22T07:43:25;6.30;99.90
22950;DHT22;11641;51.018;4.474;2023-02-22T07:45:53;6.40;99.90
22950;DHT22;11641;51.018;4.474;2023-02-22T07:48:21;6.50;99.90
22950;DHT22;11641;51.018;4.474;2023-02-22T07:50:48;6.50;99.90
22950;DHT22;11641;51.018;4.474;2023-02-22T07:53:28;6.60;99.90
22950;DHT22;11641;51.018;4.474;2023-02-22T07:55:59;6.90;99.90
22950;DHT22;11641;51.018;4.474;2023-02-22T07:58:26;7.10;99.90
22950;DHT22;11641;51.018;4.474;2023-02-22T08:00:55;7.40;99.90
22950;DHT22;11641;51.018;4.474;2023-02-22T08:03:23;7.60;99.90
22950;DHT22;11641;51.018;4.474;2023-02-22T08:05:52;7.70;99.90
22950;DHT22;11641;51.018;4.474;2023-02-22T08:08:18;7.70;99.90
22950;DHT22;11641;51.018;4.474;2023-02-22T08:10:44;7.70;99.90
22950;DHT22;11641;51.018;4.474;2023-02-22T08:13:10;7.70;99.90
22950;DHT22;11641;51.018;4.474;2023-02-22T08:15:38;7.90;99.90
22950;DHT22;11641;51.018;4.474;2023-02-22T08:18:07;7.90;99.90
22950;DHT22;11641;51.018;4.474;2023-02-22T08:20:37;7.80;99.90
22950;DHT22;11641;51.018;4.474;2023-02-22T08:23:04;7.60;99.90
22950;DHT22;11641;51.018;4.474;2023-02-22T08:25:30;7.70;99.90
22950;DHT22;11641;51.018;4.474;2023-02-22T08:27:59;7.70;99.90
22950;DHT22;11641;51.018;4.474;2023-02-22T08:30:27;7.70;99.90
22950;DHT22;11641;51.018;4.474;2023-02-22T08:32:53;7.90;99.90
22950;DHT22;11641;51.018;4.474;2023-02-22T08:35:20;8.00;99.90
22950;DHT22;11641;51.018;4.474;2023-02-22T08:37:50;7.90;99.90
22950;DHT22;11641;51.018;4.474;2023-02-22T08:40:19;8.00;99.90
22950;DHT22;11641;51.018;4.474;2023-02-22T08:42:46;8.00;99.90
22950;DHT22;11641;51.018;4.474;2023-02-22T08:45:12;8.10;99.90
22950;DHT22;11641;51.018;4.474;2023-02-22T08:47:38;8.20;99.90
22950;DHT22;11641;51.018;4.474;2023-02-22T08:50:06;8.20;99.90
22950;DHT22;11641;51.018;4.474;2023-02-22T08:52:32;8.30;99.90
22950;DHT22;11641;51.018;4.474;2023-02-22T08:54:59;8.40;99.90
22950;DHT22;11641;51.018;4.474;2023-02-22T08:57:25;8.60;99.90
22950;DHT22;11641;51.018;4.474;2023-02-22T08:59:51;8.80;99.90
22950;DHT22;11641;51.018;4.474;2023-02-22T09:02:19;9.00;99.90
22950;DHT22;11641;51.018;4.474;2023-02-22T09:04:48;9.00;99.90
22950;DHT22;11641;51.018;4.474;2023-02-22T09:07:16;9.00;99.90
22950;DHT22;11641;51.018;4.474;2023-02-22T09:09:43;9.10;99.90
22950;DHT22;11641;51.018;4.474;2023-02-22T09:12:09;9.30;99.90
22950;DHT22;11641;51.018;4.474;2023-02-22T09:14:38;9.40;99.90
22950;DHT22;11641;51.018;4.474;2023-02-22T09:17:04;9.70;99.90
22950;DHT22;11641;51.018;4.474;2023-02-22T09:19:30;9.70;99.90
22950;DHT22;11641;51.018;4.474;2023-02-22T09:21:57;9.80;99.90
22950;DHT22;11641;51.018;4.474;2023-02-22T09:24:24;9.80;99.90
22950;DHT22;11641;51.018;4.474;2023-02-22T09:26:50;9.80;99.90
22950;DHT22;11641;51.018;4.474;2023-02-22T09:29:25;9.70;99.90
22950;DHT22;11641;51.018;4.474;2023-02-22T09:31:53;9.70;99.90
22950;DHT22;11641;51.018;4.474;2023-02-22T09:34:20;9.60;99.90
22950;DHT22;11641;51.018;4.474;2023-02-22T09:36:47;9.70;99.90
22950;DHT22;11641;51.018;4.474;2023-02-22T09:39:17;9.70;99.90
22950;DHT22;11641;51.018;4.474;2023-02-22T09:41:50;9.80;99.90
22950;DHT22;11641;51.018;4.474;2023-02-22T09:44:31;9.80;99.90
22950;DHT22;11641;51.018;4.474;2023-02-22T09:47:01;9.80;99.90
22950;DHT22;11641;51.018;4.474;2023-02-22T09:49:36;9.90;99.90
22950;DHT22;11641;51.018;4.474;2023-02-22T09:52:16;10.10;99.90
22950;DHT22;11641;51.018;4.474;2023-02-22T09:54:44;10.30;99.90
22950;DHT22;11641;51.018;4.474;2023-02-22T09:57:28;10.50;99.90
22950;DHT22;11641;51.018;4.474;2023-02-22T09:59:59;10.60;99.90
22950;DHT22;11641;51.018;4.474;2023-02-22T10:02:30;10.70;99.90
22950;DHT22;11641;51.018;4.474;2023-02-22T10:05:14;10.80;99.90
22950;DHT22;11641;51.018;4.474;2023-02-22T10:07:46;10.90;99.90
22950;DHT22;11641;51.018;4.474;2023-02-22T10:10:21;11.00;99.90
22950;DHT22;11641;51.018;4.474;2023-02-22T10:12:58;11.10;99.90
22950;DHT22;11641;51.018;4.474;2023-02-22T10:26:41;12.10;99.90
22950;DHT22;11641;51.018;4.474;2023-02-22T10:29:21;12.30;99.90
22950;DHT22;11641;51.018;4.474;2023-02-22T10:31:56;12.60;99.90
22950;DHT22;11641;51.018;4.474;2023-02-22T10:34:26;12.80;99.90
22950;DHT22;11641;51.018;4.474;2023-02-22T10:36:58;12.90;99.90
22950;DHT22;11641;51.018;4.474;2023-02-22T10:39:29;12.90;99.90
22950;DHT22;11641;51.018;4.474;2023-02-22T10:41:58;13.00;99.90
22950;DHT22;11641;51.018;4.474;2023-02-22T10:44:31;13.10;99.90
22950;DHT22;11641;51.018;4.474;2023-02-22T10:46:59;13.30;99.90
22950;DHT22;11641;51.018;4.474;2023-02-22T10:49:32;13.50;99.90
22950;DHT22;11641;51.018;4.474;2023-02-22T10:52:01;13.70;99.90
22950;DHT22;11641;51.018;4.474;2023-02-22T10:54:38;14.00;99.90
22950;DHT22;11641;51.018;4.474;2023-02-22T10:57:04;14.20;99.90
22950;DHT22;11641;51.018;4.474;2023-02-22T10:59:39;14.50;99.90
22950;DHT22;11641;51.018;4.474;2023-02-22T11:04:46;15.00;99.90
22950;DHT22;11641;51.018;4.474;2023-02-22T11:07:32;15.10;99.90
22950;DHT22;11641;51.018;4.474;2023-02-22T11:10:02;15.00;99.90
22950;DHT22;11641;51.018;4.474;2023-02-22T11:12:37;15.10;99.90
22950;DHT22;11641;51.018;4.474;2023-02-22T11:15:26;15.10;99.90
22950;DHT22;11641;51.018;4.474;2023-02-22T11:17:56;14.40;99.90
22950;DHT22;11641;51.018;4.474;2023-02-22T11:20:28;14.30;99.90
22950;DHT22;11641;51.018;4.474;2023-02-22T11:23:00;14.40;99.90
22950;DHT22;11641;51.018;4.474;2023-02-22T11:25:31;14.40;99.90
22950;DHT22;11641;51.018;4.474;2023-02-22T11:28:09;14.30;99.90
22950;DHT22;11641;51.018;4.474;2023-02-22T11:30:39;14.30;99.90
22950;DHT22;11641;51.018;4.474;2023-02-22T11:33:20;13.80;99.90
22950;DHT22;11641;51.018;4.474;2023-02-22T11:35:53;13.70;99.90
22950;DHT22;11641;51.018;4.474;2023-02-22T11:38:28;13.60;99.90
22950;DHT22;11641;51.018;4.474;2023-02-22T11:43:42;13.50;99.90
22950;DHT22;11641;51.018;4.474;2023-02-22T11:46:21;13.30;99.90
22950;DHT22;11641;51.018;4.474;2023-02-22T11:49:06;13.00;99.90
22950;DHT22;11641;51.018;4.474;2023-02-22T11:57:20;12.80;99.90
22950;DHT22;11641;51.018;4.474;2023-02-22T12:05:46;13.80;99.90
22950;DHT22;11641;51.018;4.474;2023-02-22T12:14:29;13.80;99.90
22950;DHT22;11641;51.018;4.474;2023-02-22T12:19:55;14.20;99.90
22950;DHT22;11641;51.018;4.474;2023-02-22T12:22:32;14.00;99.90
22950;DHT22;11641;51.018;4.474;2023-02-22T12:25:06;14.00;99.90
22950;DHT22;11641;51.018;4.474;2023-02-22T12:27:54;14.40;99.90
22950;DHT22;11641;51.018;4.474;2023-02-22T12:30:34;16.00;99.90
22950;DHT22;11641;51.018;4.474;2023-02-22T12:33:05;17.80;99.90
22950;DHT22;11641;51.018;4.474;2023-02-22T12:35:49;18.50;99.90
22950;DHT22;11641;51.018;4.474;2023-02-22T12:38:24;17.90;99.90
22950;DHT22;11641;51.018;4.474;2023-02-22T12:41:02;17.10;99.90
22950;DHT22;11641;51.018;4.474;2023-02-22T12:43:47;16.60;99.90
22950;DHT22;11641;51.018;4.474;2023-02-22T12:46:26;16.10;99.90
22950;DHT22;11641;51.018;4.474;2023-02-22T12:49:30;15.80;99.90
22950;DHT22;11641;51.018;4.474;2023-02-22T12:52:14;15.40;99.90
22950;DHT22;11641;51.018;4.474;2023-02-22T12:57:42;15.40;99.90
22950;DHT22;11641;51.018;4.474;2023-02-22T13:02:47;15.40;99.90
22950;DHT22;11641;51.018;4.474;2023-02-22T13:05:17;15.50;99.90
22950;DHT22;11641;51.018;4.474;2023-02-22T13:13:23;14.70;99.90
22950;DHT22;11641;51.018;4.474;2023-02-22T13:16:05;14.10;99.90
22950;DHT22;11641;51.018;4.474;2023-02-22T13:23:51;15.00;99.90
22950;DHT22;11641;51.018;4.474;2023-02-22T13:31:54;15.20;99.90
22950;DHT22;11641;51.018;4.474;2023-02-22T13:37:34;14.90;99.90
22950;DHT22;11641;51.018;4.474;2023-02-22T13:53:17;13.10;99.90
22950;DHT22;11641;51.018;4.474;2023-02-22T13:55:51;13.20;99.90
22950;DHT22;11641;51.018;4.474;2023-02-22T13:58:17;13.30;99.90
22950;DHT22;11641;51.018;4.474;2023-02-22T14:01:01;13.10;99.90
22950;DHT22;11641;51.018;4.474;2023-02-22T14:03:33;13.10;99.90
22950;DHT22;11641;51.018;4.474;2023-02-22T14:06:06;12.80;99.90
22950;DHT22;11641;51.018;4.474;2023-02-22T14:11:03;12.80;99.90
22950;DHT22;11641;51.018;4.474;2023-02-22T14:16:26;12.50;99.90
22950;DHT22;11641;51.018;4.474;2023-02-22T14:21:27;12.30;99.90
22950;DHT22;11641;51.018;4.474;2023-02-22T14:23:53;12.40;99.90
22950;DHT22;11641;51.018;4.474;2023-02-22T14:26:28;12.40;99.90
22950;DHT22;11641;51.018;4.474;2023-02-22T14:31:54;12.60;99.90
22950;DHT22;11641;51.018;4.474;2023-02-22T14:34:57;12.60;99.90
22950;DHT22;11641;51.018;4.474;2023-02-22T14:37:34;12.70;99.90
22950;DHT22;11641;51.018;4.474;2023-02-22T14:40:06;12.70;99.90
22950;DHT22;11641;51.018;4.474;2023-02-22T14:43:10;12.60;99.90
22950;DHT22;11641;51.018;4.474;2023-02-22T14:45:43;12.40;99.90
22950;DHT22;11641;51.018;4.474;2023-02-22T14:50:48;12.20;99.90
22950;DHT22;11641;51.018;4.474;2023-02-22T14:56:08;12.30;99.90
22950;DHT22;11641;51.018;4.474;2023-02-22T15:01:34;12.00;99.90
22950;DHT22;11641;51.018;4.474;2023-02-22T15:04:23;11.90;99.90
22950;DHT22;11641;51.018;4.474;2023-02-22T15:06:51;11.70;99.90
22950;DHT22;11641;51.018;4.474;2023-02-22T15:09:21;11.70;99.90
22950;DHT22;11641;51.018;4.474;2023-02-22T15:12:09;11.80;99.90
22950;DHT22;11641;51.018;4.474;2023-02-22T15:14:40;11.80;99.90
22950;DHT22;11641;51.018;4.474;2023-02-22T15:17:19;11.60;99.90
22950;DHT22;11641;51.018;4.474;2023-02-22T15:19:47;11.50;99.90
22950;DHT22;11641;51.018;4.474;2023-02-22T15:22:26;11.50;99.90
22950;DHT22;11641;51.018;4.474;2023-02-22T15:25:04;11.60;99.90
22950;DHT22;11641;51.018;4.474;2023-02-22T15:27:31;11.40;99.90
22950;DHT22;11641;51.018;4.474;2023-02-22T15:30:05;11.30;99.90
22950;DHT22;11641;51.018;4.474;2023-02-22T15:32:34;11.30;99.90
22950;DHT22;11641;51.018;4.474;2023-02-22T15:38:18;11.40;99.90
22950;DHT22;11641;51.018;4.474;2023-02-22T15:40:44;11.20;99.90
22950;DHT22;11641;51.018;4.474;2023-02-22T15:43:18;11.40;99.90
22950;DHT22;11641;51.018;4.474;2023-02-22T15:45:45;11.30;99.90
22950;DHT22;11641;51.018;4.474;2023-02-22T15:48:11;11.20;99.90
22950;DHT22;11641;51.018;4.474;2023-02-22T15:50:37;10.90;99.90
22950;DHT22;11641;51.018;4.474;2023-02-22T15:53:24;10.90;99.90
22950;DHT22;11641;51.018;4.474;2023-02-22T15:55:56;10.90;99.90
22950;DHT22;11641;51.018;4.474;2023-02-22T15:58:24;10.90;99.90
22950;DHT22;11641;51.018;4.474;2023-02-22T16:01:03;10.80;99.90
22950;DHT22;11641;51.018;4.474;2023-02-22T16:03:50;10.90;99.90
22950;DHT22;11641;51.018;4.474;2023-02-22T16:06:30;11.00;99.90
22950;DHT22;11641;51.018;4.474;2023-02-22T16:09:23;10.90;99.90
22950;DHT22;11641;51.018;4.474;2023-02-22T16:12:25;10.80;99.90
22950;DHT22;11641;51.018;4.474;2023-02-22T16:14:52;10.70;99.90
22950;DHT22;11641;51.018;4.474;2023-02-22T16:19:53;10.70;99.90
22950;DHT22;11641;51.018;4.474;2023-02-22T16:22:32;10.80;99.90
22950;DHT22;11641;51.018;4.474;2023-02-22T16:25:24;10.80;99.90
22950;DHT22;11641;51.018;4.474;2023-02-22T16:28:03;10.70;99.90
22950;DHT22;11641;51.018;4.474;2023-02-22T16:30:56;10.70;99.90
22950;DHT22;11641;51.018;4.474;2023-02-22T16:33:22;10.90;99.90
22950;DHT22;11641;51.018;4.474;2023-02-22T16:35:47;10.90;99.90
22950;DHT22;11641;51.018;4.474;2023-02-22T16:38:17;10.80;99.90
22950;DHT22;11641;51.018;4.474;2023-02-22T16:40:48;10.70;99.90
22950;DHT22;11641;51.018;4.474;2023-02-22T16:43:19;10.70;99.90
22950;DHT22;11641;51.018;4.474;2023-02-22T16:45:45;10.70;99.90
22950;DHT22;11641;51.018;4.474;2023-02-22T16:48:24;10.60;99.90
22950;DHT22;11641;51.018;4.474;2023-02-22T16:50:52;10.50;99.90
22950;DHT22;11641;51.018;4.474;2023-02-22T16:53:20;10.60;99.90
22950;DHT22;11641;51.018;4.474;2023-02-22T16:55:47;10.60;99.90
22950;DHT22;11641;51.018;4.474;2023-02-22T16:58:15;10.60;99.90
22950;DHT22;11641;51.018;4.474;2023-02-22T17:00:42;10.60;99.90
22950;DHT22;11641;51.018;4.474;2023-02-22T17:03:14;10.70;99.90
22950;DHT22;11641;51.018;4.474;2023-02-22T17:05:42;10.70;99.90
22950;DHT22;11641;51.018;4.474;2023-02-22T17:08:08;10.80;99.90
22950;DHT22;11641;51.018;4.474;2023-02-22T17:10:33;10.80;99.90
22950;DHT22;11641;51.018;4.474;2023-02-22T17:13:00;10.70;99.90
22950;DHT22;11641;51.018;4.474;2023-02-22T17:15:32;10.60;99.90
22950;DHT22;11641;51.018;4.474;2023-02-22T17:18:05;10.70;99.90
22950;DHT22;11641;51.018;4.474;2023-02-22T17:20:35;10.60;99.90
22950;DHT22;11641;51.018;4.474;2023-02-22T17:23:08;10.60;99.90
22950;DHT22;11641;51.018;4.474;2023-02-22T17:25:41;10.50;99.90
22950;DHT22;11641;51.018;4.474;2023-02-22T17:28:09;10.40;99.90
22950;DHT22;11641;51.018;4.474;2023-02-22T17:30:36;10.30;99.90
22950;DHT22;11641;51.018;4.474;2023-02-22T17:33:07;10.20;99.90
22950;DHT22;11641;51.018;4.474;2023-02-22T17:35:38;10.30;99.90
22950;DHT22;11641;51.018;4.474;2023-02-22T17:38:05;10.40;99.90
22950;DHT22;11641;51.018;4.474;2023-02-22T17:40:34;10.50;99.90
22950;DHT22;11641;51.018;4.474;2023-02-22T17:43:00;10.60;99.90
22950;DHT22;11641;51.018;4.474;2023-02-22T17:45:28;10.50;99.90
22950;DHT22;11641;51.018;4.474;2023-02-22T17:47:54;10.60;99.90
22950;DHT22;11641;51.018;4.474;2023-02-22T17:50:23;10.60;99.90
22950;DHT22;11641;51.018;4.474;2023-02-22T17:52:49;10.70;99.90
22950;DHT22;11641;51.018;4.474;2023-02-22T17:55:19;10.70;99.90
22950;DHT22;11641;51.018;4.474;2023-02-22T17:57:45;10.70;99.90
22950;DHT22;11641;51.018;4.474;2023-02-22T18:00:16;10.70;99.90
22950;DHT22;11641;51.018;4.474;2023-02-22T18:02:49;10.70;99.90
22950;DHT22;11641;51.018;4.474;2023-02-22T18:05:16;10.70;99.90
22950;DHT22;11641;51.018;4.474;2023-02-22T18:07:43;10.60;99.90
22950;DHT22;11641;51.018;4.474;2023-02-22T18:10:09;10.60;99.90